Overview Statistics Trail Chart Weather Telemetry Raw packets
 

This is the latest recevied weather packets stored in our database for station/object KB1WCR. If no packets are shown the sender has not sent any weather packets the latest 10 day(s).

<< 108 109 110 111 112 113 114 >>
Time Temp. Humidity Pressure Rain* Wind** Luminosity Snow
1787611664 23.33° C 75% 1012.8 hPa 0 mm - 30 W/m² -
1787611362 23.33° C 76% 1012.9 hPa 0 mm - 33 W/m² -
1787611062 23.33° C 75% 1012.8 hPa 0 mm - 35 W/m² -
1787610757 23.33° C 74% 1012.7 hPa 0 mm - 34 W/m² -
1787610452 23.33° C 75% 1012.7 hPa 0 mm - 34 W/m² -
1787610152 23.89° C 74% 1012.7 hPa 0 mm - 43 W/m² -
1787609850 24.44° C 75% 1012.4 hPa 0 mm - 47 W/m² -
1787609545 25.56° C 68% 1012.4 hPa 0 mm - 53 W/m² -
1787609240 25.56° C 68% 1012.5 hPa 0 mm - 92 W/m² -
1787608940 25° C 70% 1012.4 hPa 0 mm - 77 W/m² -
1787608635 25.56° C 67% 1012.5 hPa 0 mm - 91 W/m² -
1787608330 26.11° C 67% 1012.6 hPa 0 mm - 102 W/m² -
1787608027 26.67° C 66% 1012.5 hPa 0 mm - 129 W/m² -
1787607723 26.11° C 66% 1012.5 hPa 0 mm - 148 W/m² -
1787607419 25.56° C 66% 1012.3 hPa 0 mm - 166 W/m² -
1787607116 25.56° C 67% 1012.2 hPa 0 mm - 175 W/m² -
1787606811 26.11° C 68% 1012.2 hPa 0 mm - 171 W/m² -
1787606510 26.67° C 66% 1012.4 hPa 0 mm - 180 W/m² -
1787606208 26.67° C 66% 1012.4 hPa 0 mm - 275 W/m² -
1787605903 25° C 70% 1012.3 hPa 0 mm - 295 W/m² -
1787605602 24.44° C 71% 1012.2 hPa 0 mm - 95 W/m² -
1787605299 24.44° C 71% 1012.1 hPa 0 mm - 112 W/m² -
1787604998 24.44° C 72% 1012.2 hPa 0 mm - 77 W/m² -
1787604697 25° C 70% 1012.1 hPa 0 mm - 72 W/m² -
1787604392 25.56° C 70% 1012.2 hPa 0 mm - 97 W/m² -

* Rain latest hour (hover to see other rain measurements)
** Current wind speed in m/s (hover to see current wind gust speed)